Weather History for Grants-Milan, NM

Change the Weather History Date:

Tuesday, January 22, 2013

  Actual Average Record
Temperature  
Mean Temperature 36 °F -  
Max Temperature 60 °F 46 °F 62 °F (1993)
Min Temperature 11 °F 14 °F -18 °F (1987)
Degree Days  
Heating Degree Days 30    
Moisture  
Dew Point 8 °F    
Average Humidity 45    
Maximum Humidity 80    
Minimum Humidity 12    
Precipitation  
Precipitation 0.00 in - - ()
Sea Level Pressure  
Sea Level Pressure 30.35 in    
Wind  
Wind Speed 7 mph (NW)    
Max Wind Speed 13 mph    
Max Gust Speed 21 mph    
Visibility 10 miles    
Events      
Averages and records for this station are not official NWS values.
T = Trace of Precipitation, MM = Missing Value Source: NWS Daily Summary

Daily Weather History Graph

Daily Weather History Graph

Search for Another Location

Airport:

Trip Planner

Search our weather history database for the weather conditions in past years. The results will help you decide how hot, cold, wet, or windy it might be!

Date:

Astronomy

Jan. 22, 2013 Rise Set
Actual Time 7:16 AM MST 5:30 PM MST
Civil Twilight 6:49 AM MST 5:57 PM MST
Nautical Twilight 6:18 AM MST 6:28 PM MST
Astronomical Twilight 5:48 AM MST 6:58 PM MST
Moon 1:57 PM MST (1/22) 3:39 AM MST (1/22)
Length of Visible Light 11h 07m
Length of Day
10h 13m
Waxing Gibbous, 83% of the Moon is Illuminated
Jan 22
Waxing Gibbous
Jan 26
Full
Feb 3
Last Quarter
Feb 10
New
Feb 17
First Quarter

Hourly Weather History & Observations

Time (MST) Temp. Windchill Dew Point Humidity Pressure Visibility Wind Dir Wind Speed Gust Speed Precip Events Conditions
12:15 AM 20.7 °F - 8.8 °F 60% 30.33 in 10.0 mi Calm Calm - N/A   Clear
12:55 AM 19.4 °F 11.5 °F 9.7 °F 66% 30.33 in 10.0 mi NW 5.8 mph - N/A   Clear
1:15 AM 17.4 °F 9.1 °F 9.1 °F 70% 30.33 in 10.0 mi NW 5.8 mph - N/A   Clear
1:35 AM 17.6 °F 8.2 °F 9.0 °F 69% 30.33 in 10.0 mi NW 6.9 mph - N/A   Clear
1:55 AM 18.0 °F 8.7 °F 9.5 °F 70% 30.34 in 10.0 mi NW 6.9 mph - N/A   Clear
2:15 AM 17.1 °F 8.7 °F 9.0 °F 71% 30.35 in 10.0 mi WNW 5.8 mph - N/A   Clear
2:35 AM 17.1 °F 7.6 °F 8.2 °F 68% 30.35 in 10.0 mi NW 6.9 mph - N/A   Clear
2:55 AM 17.6 °F 8.2 °F 9.7 °F 71% 30.36 in 10.0 mi WNW 6.9 mph - N/A   Clear
3:15 AM 17.6 °F 8.2 °F 10.0 °F 72% 30.35 in 10.0 mi WNW 6.9 mph - N/A   Clear
3:35 AM 16.3 °F 5.7 °F 9.7 °F 75% 30.35 in 10.0 mi NW 8.1 mph - N/A   Clear
3:55 AM 16.0 °F 4.4 °F 9.5 °F 76% 30.34 in 10.0 mi NW 9.2 mph - N/A   Clear
4:15 AM 14.4 °F 3.3 °F 8.4 °F 77% 30.34 in 10.0 mi NW 8.1 mph - N/A   Clear
4:35 AM 12.0 °F 1.5 °F 5.9 °F 76% 30.34 in 10.0 mi NNW 6.9 mph - N/A   Clear
4:55 AM 11.5 °F -0.2 °F 6.4 °F 80% 30.35 in 10.0 mi NW 8.1 mph - N/A   Clear
5:15 AM 12.9 °F 1.6 °F 7.3 °F 78% 30.35 in 10.0 mi NW 8.1 mph - N/A   Clear
5:55 AM 14.0 °F 2.9 °F 7.5 °F 75% 30.36 in 10.0 mi NW 8.1 mph - N/A   Clear
6:15 AM 14.5 °F 1.9 °F 8.4 °F 77% 30.37 in 10.0 mi WNW 10.4 mph - N/A   Clear
6:35 AM 14.4 °F 2.4 °F 8.6 °F 78% 30.38 in 10.0 mi WNW 9.2 mph - N/A   Clear
6:55 AM 14.5 °F 4.6 °F 8.2 °F 76% 30.38 in 10.0 mi WNW 6.9 mph - N/A   Clear
7:15 AM 12.9 °F 1.6 °F 7.7 °F 80% 30.38 in 10.0 mi WNW 8.1 mph - N/A   Clear
7:35 AM 13.5 °F 3.3 °F 7.7 °F 78% 30.38 in 10.0 mi NW 6.9 mph - N/A   Clear
7:55 AM 12.6 °F 2.2 °F 6.4 °F 77% 30.38 in 10.0 mi NW 6.9 mph - N/A   Clear
8:15 AM 17.4 °F 7.1 °F 8.2 °F 67% 30.38 in 10.0 mi NW 8.1 mph - N/A   Clear
8:35 AM 21.2 °F 13.6 °F 10.4 °F 63% 30.38 in 10.0 mi NW 5.8 mph - N/A   Clear
8:55 AM 23.5 °F 14.5 °F 11.3 °F 60% 30.38 in 10.0 mi NW 8.1 mph - N/A   Clear
9:15 AM 26.1 °F 19.4 °F 10.9 °F 53% 30.39 in 10.0 mi NW 5.8 mph - N/A   Clear
9:35 AM 28.9 °F 25.2 °F 11.5 °F 48% 30.39 in 10.0 mi North 3.5 mph - N/A   Clear
9:55 AM 32.0 °F 28.7 °F 11.5 °F 43% 30.40 in 10.0 mi NNW 3.5 mph - N/A   Clear
10:15 AM 36.5 °F 31.8 °F 12.7 °F 38% 30.39 in 10.0 mi North 5.8 mph - N/A   Clear
10:35 AM 40.3 °F 35.5 °F 12.7 °F 33% 30.39 in 10.0 mi North 6.9 mph - N/A   Clear
10:55 AM 44.2 °F 41.8 °F 12.6 °F 28% 30.38 in 10.0 mi NNW 4.6 mph - N/A   Clear
11:15 AM 48.4 °F - 12.2 °F 23% 30.38 in 10.0 mi NNW 8.1 mph - N/A   Clear
11:35 AM 50.7 °F - 9.7 °F 19% 30.37 in 10.0 mi NNW 5.8 mph - N/A   Clear
11:55 AM 53.2 °F - 6.8 °F 15% 30.35 in 10.0 mi NW 9.2 mph - N/A   Clear
12:15 PM 55.2 °F - 6.3 °F 14% 30.34 in 10.0 mi NNW 12.7 mph 18.4 mph N/A   Clear
12:35 PM 55.8 °F - 6.6 °F 14% 30.34 in 10.0 mi North 12.7 mph 17.3 mph N/A   Clear
12:55 PM 57.4 °F - 6.8 °F 13% 30.32 in 10.0 mi NW 11.5 mph 20.7 mph N/A   Clear
1:15 PM 58.3 °F - 6.3 °F 13% 30.32 in 10.0 mi NW 9.2 mph - N/A   Clear
1:35 PM 58.8 °F - 6.8 °F 13% 30.31 in 10.0 mi NNW 12.7 mph 17.3 mph N/A   Clear
1:55 PM 59.9 °F - 7.0 °F 12% 30.30 in 10.0 mi NNW 12.7 mph 20.7 mph N/A   Clear
2:15 PM 59.9 °F - 7.0 °F 12% 30.30 in 10.0 mi NNW 12.7 mph 17.3 mph N/A   Clear
2:35 PM 60.6 °F - 7.2 °F 12% 30.30 in 10.0 mi NNW 11.5 mph 16.1 mph N/A   Clear
2:55 PM 60.8 °F - 6.4 °F 12% 30.30 in 10.0 mi NNW 11.5 mph 17.3 mph N/A   Clear
3:15 PM 60.8 °F - 7.0 °F 12% 30.30 in 10.0 mi North 10.4 mph - N/A   Clear
3:35 PM 60.4 °F - 6.8 °F 12% 30.30 in 10.0 mi North 10.4 mph - N/A   Clear
3:55 PM 59.9 °F - 6.3 °F 12% 30.30 in 10.0 mi North 12.7 mph - N/A   Clear
4:15 PM 59.0 °F - 6.3 °F 12% 30.29 in 10.0 mi NNE 11.5 mph - N/A   Clear
4:35 PM 57.0 °F - 5.0 °F 12% 30.30 in 10.0 mi North 8.1 mph - N/A   Clear
4:55 PM 55.4 °F - 2.3 °F 12% 30.30 in 10.0 mi North 9.2 mph - N/A   Clear
5:15 PM 50.9 °F - -0.0 °F 12% 30.31 in 10.0 mi NNW 10.4 mph - N/A   Clear
5:35 PM 42.8 °F 37.0 °F 2.5 °F 19% 30.32 in 10.0 mi NW 10.4 mph - N/A   Clear
5:55 PM 39.2 °F 33.0 °F 3.4 °F 22% 30.32 in 10.0 mi NW 9.2 mph - N/A   Clear
6:15 PM 37.8 °F 32.5 °F 5.2 °F 26% 30.33 in 10.0 mi North 6.9 mph - N/A   Clear
6:35 PM 31.6 °F 25.1 °F 2.8 °F 30% 30.33 in 10.0 mi NNW 6.9 mph - N/A   Clear
6:55 PM 34.0 °F 27.2 °F 5.4 °F 30% 30.34 in 10.0 mi NW 8.1 mph - N/A   Clear
7:15 PM 30.0 °F 24.1 °F 4.6 °F 34% 30.35 in 10.0 mi NNW 5.8 mph - N/A   Clear
7:35 PM 32.2 °F 28.9 °F 7.0 °F 35% 30.35 in 10.0 mi West 3.5 mph - N/A   Clear
7:55 PM 29.3 °F 23.2 °F 6.3 °F 38% 30.35 in 10.0 mi WNW 5.8 mph - N/A   Clear
8:15 PM 31.8 °F 27.3 °F 7.3 °F 36% 30.35 in 10.0 mi WNW 4.6 mph - N/A   Clear
8:35 PM 27.9 °F 21.5 °F 7.3 °F 42% 30.35 in 10.0 mi WNW 5.8 mph - N/A   Clear
8:55 PM 30.0 °F 20.5 °F 7.2 °F 38% 30.36 in 10.0 mi NW 11.5 mph - N/A   Clear
9:15 PM 26.6 °F 19.1 °F 7.3 °F 44% 30.37 in 10.0 mi NW 6.9 mph - N/A   Clear
9:35 PM 27.0 °F 18.7 °F 7.7 °F 44% 30.37 in 10.0 mi WNW 8.1 mph - N/A   Clear
9:55 PM 26.8 °F 17.1 °F 10.0 °F 49% 30.38 in 10.0 mi WNW 10.4 mph - N/A   Clear
10:15 PM 23.4 °F 17.4 °F 9.7 °F 56% 30.38 in 10.0 mi NNW 4.6 mph - N/A   Clear
10:35 PM 20.3 °F 12.5 °F 7.2 °F 57% 30.38 in 10.0 mi WNW 5.8 mph - N/A   Clear
10:55 PM 19.4 °F 11.5 °F 5.9 °F 56% 30.39 in 10.0 mi NW 5.8 mph - N/A   Clear
11:15 PM 19.0 °F 9.0 °F 7.7 °F 61% 30.40 in 10.0 mi WNW 8.1 mph - N/A   Clear
11:35 PM 24.1 °F 16.0 °F 8.2 °F 51% 30.40 in 10.0 mi WNW 6.9 mph - N/A   Clear
11:55 PM 20.8 °F 10.4 °F 7.7 °F 57% 30.40 in 10.0 mi NW 9.2 mph - N/A   Clear